Time;durP1;ratioP1;P1;durP2;ratioP2;P2;SDS_P1;SDS_P2;PMS_P1;PMS_P2;Temp;Humidity;BMP_temperature;BMP_pressure;BME280_temperature;BME280_humidity;BME280_pressure;Samples;Min_cycle;Max_cycle;Signal;HPM_P1;HPM_P2
2021/11/26 00:00:36;;;;;;;25.52;15.75;;;23.40;42.10;;;;;;6144826;28;83276;-67
2021/11/26 00:03:36;;;;;;;26.38;16.08;;;23.30;42.40;;;;;;6148092;28;83956;-67
2021/11/26 00:06:37;;;;;;;26.58;16.80;;;23.40;42.70;;;;;;6145295;28;83816;-67
2021/11/26 00:09:37;;;;;;;24.90;16.13;;;23.40;42.80;;;;;;6151724;28;84223;-67
2021/11/26 00:12:38;;;;;;;27.83;16.80;;;23.40;41.80;;;;;;6145763;28;82868;-67
2021/11/26 00:15:40;;;;;;;31.10;16.95;;;23.40;42.20;;;;;;6150945;28;83113;-66
2021/11/26 00:18:45;;;;;;;27.75;16.27;;;23.40;41.70;;;;;;6152464;28;83303;-67
2021/11/26 00:21:45;;;;;;;28.77;17.30;;;23.40;42.00;;;;;;6142135;28;83295;-66
2021/11/26 00:24:48;;;;;;;26.33;16.67;;;23.40;41.80;;;;;;6146646;28;83206;-66
2021/11/26 00:27:51;;;;;;;27.02;17.00;;;23.40;41.60;;;;;;6145358;28;83757;-65
2021/11/26 00:30:53;;;;;;;30.25;17.30;;;23.40;41.90;;;;;;6147319;28;84790;-65
2021/11/26 00:33:54;;;;;;;24.13;15.60;;;23.40;42.20;;;;;;6148222;28;83480;-65
2021/11/26 00:36:54;;;;;;;24.65;15.55;;;23.40;42.20;;;;;;6145360;28;83781;-65
2021/11/26 00:39:55;;;;;;;26.58;17.73;;;23.30;42.50;;;;;;6143812;28;83383;-65
2021/11/26 00:42:55;;;;;;;25.60;15.88;;;23.40;42.10;;;;;;6146521;28;84108;-65
2021/11/26 00:45:56;;;;;;;30.95;16.90;;;23.40;42.30;;;;;;6146578;28;84043;-65
2021/11/26 00:48:56;;;;;;;26.73;17.05;;;23.30;41.90;;;;;;6144731;28;83339;-65
2021/11/26 00:51:57;;;;;;;25.45;15.90;;;23.30;41.90;;;;;;6149020;28;84757;-65
2021/11/26 00:54:57;;;;;;;27.10;16.30;;;23.40;42.00;;;;;;6148004;28;85140;-65
2021/11/26 00:57:58;;;;;;;26.55;16.35;;;23.30;42.70;;;;;;6149823;28;83026;-65
2021/11/26 01:00:58;;;;;;;28.80;17.33;;;23.30;43.30;;;;;;6142545;28;82842;-66
2021/11/26 01:03:59;;;;;;;29.73;17.27;;;23.30;41.90;;;;;;6147057;28;83344;-66
2021/11/26 01:06:59;;;;;;;30.77;17.77;;;23.30;41.80;;;;;;6139857;28;84293;-66
2021/11/26 01:10:00;;;;;;;27.55;16.80;;;23.30;42.20;;;;;;6133053;28;83182;-66
2021/11/26 01:13:00;;;;;;;30.02;18.00;;;23.30;43.00;;;;;;6125172;28;83589;-66
2021/11/26 01:16:01;;;;;;;26.75;16.15;;;23.30;42.50;;;;;;6127018;28;83812;-66
2021/11/26 01:19:01;;;;;;;28.88;18.17;;;23.30;43.40;;;;;;6131300;28;84404;-65
2021/11/26 01:22:02;;;;;;;28.90;17.48;;;23.30;41.90;;;;;;6130122;28;83125;-66
2021/11/26 01:25:03;;;;;;;29.60;17.25;;;23.30;42.00;;;;;;6130399;28;84020;-65
2021/11/26 01:28:03;;;;;;;35.53;18.25;;;23.30;42.00;;;;;;6127879;28;84593;-66
2021/11/26 01:31:04;;;;;;;31.33;17.35;;;23.30;41.90;;;;;;6137787;28;83394;-66
2021/11/26 01:34:05;;;;;;;27.88;16.42;;;23.30;42.20;;;;;;6148592;28;85594;-65
2021/11/26 01:37:05;;;;;;;30.05;17.25;;;23.20;42.10;;;;;;6135421;28;83412;-65
2021/11/26 01:40:06;;;;;;;29.40;18.42;;;23.30;42.50;;;;;;6131772;28;83160;-66
2021/11/26 01:43:07;;;;;;;28.98;18.10;;;23.20;42.10;;;;;;6131980;28;84149;-65
2021/11/26 01:46:10;;;;;;;30.65;19.05;;;23.20;42.10;;;;;;6135649;28;83600;-66
2021/11/26 01:49:11;;;;;;;31.85;19.05;;;23.20;41.60;;;;;;6129467;28;83803;-66
2021/11/26 01:52:11;;;;;;;31.52;19.17;;;23.20;42.00;;;;;;6127062;28;85372;-66
2021/11/26 01:55:12;;;;;;;38.58;21.67;;;23.20;41.40;;;;;;6130614;28;83832;-66
2021/11/26 01:58:12;;;;;;;34.30;20.52;;;23.20;41.40;;;;;;6131095;28;83250;-66
2021/11/26 02:01:13;;;;;;;35.17;21.05;;;23.20;41.60;;;;;;6127248;28;86330;-66
2021/11/26 02:04:14;;;;;;;32.10;20.65;;;23.20;41.30;;;;;;6131526;28;85808;-66
2021/11/26 02:07:14;;;;;;;35.45;21.15;;;23.20;42.00;;;;;;6129483;28;83263;-66
2021/11/26 02:10:15;;;;;;;32.60;19.40;;;23.20;41.80;;;;;;6132276;28;83030;-66
2021/11/26 02:13:15;;;;;;;36.95;20.50;;;23.20;41.80;;;;;;6125969;28;83212;-66
2021/11/26 02:16:16;;;;;;;36.95;22.45;;;23.20;41.20;;;;;;6128242;28;84073;-66
2021/11/26 02:19:16;;;;;;;35.75;20.98;;;23.20;41.50;;;;;;6120079;28;84226;-66
2021/11/26 02:22:17;;;;;;;34.65;20.55;;;23.20;42.60;;;;;;6130971;28;83574;-66
2021/11/26 02:25:17;;;;;;;35.40;21.17;;;23.20;41.60;;;;;;6129270;28;83225;-66
2021/11/26 02:28:18;;;;;;;33.05;20.85;;;23.20;42.00;;;;;;6125695;28;84299;-66
2021/11/26 02:31:18;;;;;;;35.97;20.63;;;23.20;41.30;;;;;;6125403;28;82894;-66
2021/11/26 02:34:19;;;;;;;36.15;20.90;;;23.20;41.10;;;;;;6129689;28;83360;-66
2021/11/26 02:37:19;;;;;;;29.50;19.33;;;23.20;41.00;;;;;;6129874;28;83311;-66
2021/11/26 02:40:20;;;;;;;31.08;19.92;;;23.10;41.00;;;;;;6129715;28;82789;-66
2021/11/26 02:43:20;;;;;;;30.95;18.27;;;23.20;41.10;;;;;;6134495;28;83236;-66
2021/11/26 02:46:21;;;;;;;31.58;19.02;;;23.20;41.30;;;;;;6127209;28;84217;-66
2021/11/26 02:49:22;;;;;;;34.20;19.35;;;23.10;41.60;;;;;;6130135;28;83757;-66
2021/11/26 02:52:22;;;;;;;30.00;18.02;;;23.20;41.30;;;;;;6131973;28;83417;-67
2021/11/26 02:55:23;;;;;;;33.50;18.05;;;23.20;41.20;;;;;;6129656;28;83387;-66
2021/11/26 02:58:24;;;;;;;28.27;18.67;;;23.20;40.90;;;;;;6132478;28;83573;-66
2021/11/26 03:01:24;;;;;;;29.55;18.63;;;23.20;41.20;;;;;;6129091;28;83782;-66
2021/11/26 03:04:25;;;;;;;31.92;18.23;;;23.20;40.90;;;;;;6125797;28;85128;-66
2021/11/26 03:07:25;;;;;;;30.63;18.27;;;23.20;40.90;;;;;;6124493;28;83095;-66
2021/11/26 03:10:26;;;;;;;32.15;18.17;;;23.20;40.90;;;;;;6125691;28;85580;-65
2021/11/26 03:13:26;;;;;;;32.10;18.52;;;23.20;41.30;;;;;;6125321;28;83102;-66
2021/11/26 03:16:27;;;;;;;29.52;18.52;;;23.20;40.40;;;;;;6129378;28;83449;-66
2021/11/26 03:19:27;;;;;;;32.35;19.35;;;23.10;40.20;;;;;;6133466;28;83139;-67
2021/11/26 03:22:28;;;;;;;31.35;19.50;;;23.20;40.20;;;;;;6126986;28;83803;-66
2021/11/26 03:25:28;;;;;;;26.98;18.70;;;23.20;39.90;;;;;;6127239;28;84112;-67
2021/11/26 03:28:29;;;;;;;31.52;19.63;;;23.30;39.90;;;;;;6131468;28;83416;-66
2021/11/26 03:31:29;;;;;;;32.90;19.77;;;23.30;39.80;;;;;;6127927;28;83159;-66
2021/11/26 03:34:29;;;;;;;32.67;20.17;;;23.40;39.70;;;;;;6131184;28;83974;-66
2021/11/26 03:37:30;;;;;;;33.80;20.23;;;23.40;39.50;;;;;;6118415;28;83703;-65
2021/11/26 03:40:30;;;;;;;34.35;21.27;;;23.40;39.30;;;;;;6126339;28;84135;-66
2021/11/26 03:43:31;;;;;;;38.15;20.70;;;23.50;39.30;;;;;;6125922;28;84624;-66
2021/11/26 03:46:32;;;;;;;37.30;22.52;;;23.50;39.10;;;;;;6129401;28;82862;-66
2021/11/26 03:49:32;;;;;;;31.80;21.27;;;23.50;39.00;;;;;;6126667;28;83928;-66
2021/11/26 03:52:33;;;;;;;41.05;22.73;;;23.60;39.00;;;;;;6129110;28;83371;-66
2021/11/26 03:55:33;;;;;;;34.72;21.10;;;23.60;39.00;;;;;;6130851;28;84643;-66
2021/11/26 03:58:34;;;;;;;38.50;23.20;;;23.60;38.90;;;;;;6129226;28;83217;-65
2021/11/26 04:01:34;;;;;;;35.83;22.08;;;23.60;38.80;;;;;;6127356;28;85499;-65
2021/11/26 04:04:35;;;;;;;34.30;21.55;;;23.60;39.50;;;;;;6130357;28;82757;-64
2021/11/26 04:07:35;;;;;;;39.05;23.35;;;23.60;39.00;;;;;;6122459;28;82996;-64
2021/11/26 04:10:36;;;;;;;38.08;23.13;;;23.60;39.10;;;;;;6123738;28;83152;-64
2021/11/26 04:13:37;;;;;;;38.80;23.67;;;23.60;39.00;;;;;;6127090;28;83164;-65
2021/11/26 04:16:38;;;;;;;42.40;24.15;;;23.70;39.10;;;;;;6128379;28;83169;-66
2021/11/26 04:19:38;;;;;;;40.65;23.63;;;23.70;39.20;;;;;;6127300;28;84222;-66
2021/11/26 04:22:39;;;;;;;35.45;22.88;;;23.70;39.30;;;;;;6125627;28;84027;-65
2021/11/26 04:25:39;;;;;;;36.25;22.73;;;23.70;39.20;;;;;;6118474;28;83516;-66
2021/11/26 04:28:40;;;;;;;35.40;21.52;;;23.70;39.00;;;;;;6118316;28;82955;-67
2021/11/26 04:31:41;;;;;;;39.80;23.05;;;23.80;39.30;;;;;;6126863;28;83892;-68
2021/11/26 04:34:41;;;;;;;34.78;22.52;;;23.70;39.20;;;;;;6128655;28;83209;-68
2021/11/26 04:37:42;;;;;;;39.45;22.33;;;23.80;39.30;;;;;;6123234;28;83192;-69
2021/11/26 04:40:42;;;;;;;38.15;21.70;;;23.80;39.50;;;;;;6123527;28;83076;-69
2021/11/26 04:43:43;;;;;;;35.60;20.58;;;23.80;39.50;;;;;;6131273;28;84348;-70
2021/11/26 04:46:43;;;;;;;27.42;15.68;;;23.70;40.10;;;;;;6125462;28;83218;-65
2021/11/26 04:49:44;;;;;;;24.00;14.40;;;23.60;40.30;;;;;;6137182;28;85100;-68
2021/11/26 04:52:44;;;;;;;22.33;14.43;;;23.60;41.20;;;;;;6130061;28;83611;-73
2021/11/26 04:55:45;;;;;;;24.65;14.35;;;23.60;41.70;;;;;;6136842;28;83744;-65
2021/11/26 04:58:46;;;;;;;25.48;13.95;;;23.70;42.10;;;;;;6129406;28;83180;-64
2021/11/26 05:01:46;;;;;;;20.83;13.35;;;23.70;43.30;;;;;;6128437;28;83368;-65
2021/11/26 05:04:47;;;;;;;20.00;13.15;;;23.70;43.50;;;;;;6131689;28;82885;-65
2021/11/26 05:07:47;;;;;;;21.98;12.50;;;23.70;44.00;;;;;;6131287;28;84597;-65
2021/11/26 05:10:52;;;;;;;21.63;13.07;;;23.60;44.20;;;;;;6125321;28;83536;-65
2021/11/26 05:13:55;;;;;;;20.03;12.00;;;23.60;44.60;;;;;;6126658;28;83541;-66
2021/11/26 05:16:55;;;;;;;22.05;13.05;;;23.60;45.00;;;;;;6125377;28;83297;-65
2021/11/26 05:19:57;;;;;;;23.15;13.13;;;23.60;45.20;;;;;;6132467;28;83311;-67
2021/11/26 05:22:58;;;;;;;20.38;12.80;;;23.50;45.80;;;;;;6127962;28;84069;-67
2021/11/26 05:25:59;;;;;;;18.55;12.32;;;23.50;45.90;;;;;;6131546;28;83030;-66
2021/11/26 05:28:59;;;;;;;20.20;12.32;;;23.50;46.30;;;;;;6126185;28;84001;-68
2021/11/26 05:32:00;;;;;;;22.08;13.45;;;23.40;46.60;;;;;;6127041;28;83601;-69
2021/11/26 05:35:00;;;;;;;34.28;18.75;;;23.40;47.20;;;;;;6129436;28;83374;-68
2021/11/26 05:38:01;;;;;;;42.00;22.63;;;23.40;47.70;;;;;;6129536;28;83626;-68
2021/11/26 05:41:01;;;;;;;50.75;26.33;;;23.40;48.00;;;;;;6133069;28;84753;-70
2021/11/26 05:44:02;;;;;;;60.47;28.88;;;23.40;48.20;;;;;;6127787;28;83380;-69
2021/11/26 05:47:02;;;;;;;63.70;33.72;;;23.40;47.90;;;;;;6130842;28;83156;-70
2021/11/26 05:50:03;;;;;;;74.30;36.65;;;23.50;47.90;;;;;;6133093;28;83561;-71
2021/11/26 05:53:04;;;;;;;82.07;41.50;;;23.50;47.70;;;;;;6132155;28;83596;-72
2021/11/26 05:56:04;;;;;;;115.60;60.55;;;23.50;47.50;;;;;;6128833;28;83144;-71
2021/11/26 05:59:05;;;;;;;166.25;85.50;;;23.50;47.50;;;;;;6128100;28;85878;-70
2021/11/26 06:02:05;;;;;;;134.60;67.57;;;23.50;47.90;;;;;;6132452;28;82962;-72
2021/11/26 06:05:06;;;;;;;146.60;72.18;;;23.50;47.60;;;;;;6132143;28;83313;-69
2021/11/26 06:08:06;;;;;;;156.15;79.30;;;23.50;47.40;;;;;;6127273;28;84447;-67
2021/11/26 06:11:07;;;;;;;147.15;75.18;;;23.50;47.20;;;;;;6123893;28;84798;-66
2021/11/26 06:14:07;;;;;;;129.10;66.78;;;23.50;47.90;;;;;;6124936;28;84156;-65
2021/11/26 06:17:08;;;;;;;115.22;59.28;;;23.50;48.00;;;;;;6124444;28;85015;-67
2021/11/26 06:20:08;;;;;;;124.68;63.15;;;23.50;48.20;;;;;;6120304;28;84102;-66
2021/11/26 06:23:09;;;;;;;112.30;57.83;;;23.40;47.90;;;;;;6126095;28;85012;-66
2021/11/26 06:26:09;;;;;;;115.47;57.63;;;23.40;48.00;;;;;;6124147;28;83677;-67
2021/11/26 06:29:12;;;;;;;104.90;55.67;;;23.40;47.90;;;;;;6128104;28;83032;-67
2021/11/26 06:32:13;;;;;;;91.32;47.75;;;23.40;48.00;;;;;;6125347;28;83219;-65
2021/11/26 06:35:14;;;;;;;86.13;45.67;;;23.50;48.00;;;;;;6129337;28;83792;-66
2021/11/26 06:38:14;;;;;;;88.80;43.25;;;23.50;48.00;;;;;;6139336;28;83099;-68
2021/11/26 06:41:15;;;;;;;79.75;42.67;;;23.50;47.80;;;;;;6129519;28;83215;-67
2021/11/26 06:44:15;;;;;;;77.25;38.20;;;23.50;47.60;;;;;;6129490;28;84110;-67
2021/11/26 06:47:16;;;;;;;66.40;35.15;;;23.50;47.50;;;;;;6129798;28;85553;-68
2021/11/26 06:50:16;;;;;;;65.85;34.88;;;23.50;47.40;;;;;;6124696;28;84077;-66
2021/11/26 06:53:17;;;;;;;60.17;32.22;;;23.50;47.70;;;;;;6128745;28;83824;-68
2021/11/26 06:56:17;;;;;;;58.25;31.75;;;23.50;47.60;;;;;;6125352;28;84098;-67
2021/11/26 06:59:18;;;;;;;55.88;30.33;;;23.50;47.40;;;;;;6125079;28;84081;-67
2021/11/26 07:02:18;;;;;;;62.20;31.88;;;23.50;47.10;;;;;;6128337;28;84102;-68
2021/11/26 07:05:19;;;;;;;59.42;31.00;;;23.50;47.20;;;;;;6128329;28;83887;-67
2021/11/26 07:08:19;;;;;;;46.20;27.17;;;23.50;47.10;;;;;;6123444;28;83645;-68
2021/11/26 07:11:20;;;;;;;49.65;27.00;;;23.50;47.30;;;;;;6125379;28;83196;-68
2021/11/26 07:14:20;;;;;;;48.38;28.50;;;23.50;47.10;;;;;;6126587;28;83273;-69
2021/11/26 07:17:21;;;;;;;47.03;26.25;;;23.50;47.10;;;;;;6143449;28;83544;-67
2021/11/26 07:20:21;;;;;;;42.92;24.48;;;23.50;47.00;;;;;;6129072;28;86020;-67
2021/11/26 07:23:22;;;;;;;48.35;26.13;;;23.40;46.90;;;;;;6127137;28;86366;-66
2021/11/26 07:26:22;;;;;;;42.70;24.35;;;23.40;46.70;;;;;;6125144;28;83918;-65
2021/11/26 07:29:23;;;;;;;41.67;24.35;;;23.40;46.80;;;;;;6137611;28;84183;-67
2021/11/26 07:32:23;;;;;;;43.70;22.92;;;23.40;46.30;;;;;;6126433;28;83392;-73
2021/11/26 07:35:24;;;;;;;39.88;21.50;;;23.40;46.70;;;;;;6128550;28;83247;-67
2021/11/26 07:38:24;;;;;;;39.15;21.65;;;23.40;46.80;;;;;;6123888;28;83157;-67
2021/11/26 07:41:25;;;;;;;34.40;21.10;;;23.40;47.00;;;;;;6126335;28;83848;-67
2021/11/26 07:44:25;;;;;;;41.70;21.55;;;23.30;46.60;;;;;;6127240;28;83628;-65
2021/11/26 07:47:26;;;;;;;35.08;19.45;;;23.30;47.60;;;;;;6125697;28;83758;-66
2021/11/26 07:50:26;;;;;;;35.22;20.45;;;23.30;47.60;;;;;;6125390;28;84812;-67
2021/11/26 07:53:28;;;;;;;37.60;20.27;;;23.30;46.40;;;;;;6124338;28;83683;-65
2021/11/26 07:56:29;;;;;;;33.55;19.60;;;23.30;46.60;;;;;;6124923;28;84886;-66
2021/11/26 07:59:30;;;;;;;33.85;19.23;;;23.30;46.70;;;;;;6123039;28;83102;-66
2021/11/26 08:02:30;;;;;;;28.48;18.60;;;23.30;46.90;;;;;;6140356;28;83727;-65
2021/11/26 08:05:31;;;;;;;34.63;18.45;;;23.30;47.30;;;;;;6123065;28;83442;-66
2021/11/26 08:08:31;;;;;;;32.05;18.25;;;23.30;47.30;;;;;;6122050;28;84388;-66
2021/11/26 08:11:32;;;;;;;36.22;18.90;;;23.30;47.50;;;;;;6124593;28;84716;-66
2021/11/26 08:14:32;;;;;;;34.88;19.63;;;23.20;47.30;;;;;;6105937;28;84520;-65
2021/11/26 08:17:33;;;;;;;32.05;18.35;;;23.20;47.20;;;;;;6126231;28;83590;-64
2021/11/26 08:20:33;;;;;;;32.00;18.83;;;23.20;47.40;;;;;;6131979;28;84482;-66
2021/11/26 08:23:34;;;;;;;30.42;17.58;;;23.30;47.50;;;;;;6126448;28;83480;-64
2021/11/26 08:26:34;;;;;;;29.80;17.30;;;23.30;47.60;;;;;;6130792;28;84214;-64
2021/11/26 08:29:35;;;;;;;31.75;19.08;;;23.30;48.10;;;;;;6129163;28;83088;-64
2021/11/26 08:32:36;;;;;;;31.35;16.85;;;23.30;47.50;;;;;;6135174;28;83110;-65
2021/11/26 08:35:36;;;;;;;33.22;17.25;;;23.30;47.60;;;;;;6133120;28;84427;-65
2021/11/26 08:38:37;;;;;;;28.27;17.08;;;23.30;47.60;;;;;;6129144;28;84060;-65
2021/11/26 08:41:37;;;;;;;30.85;18.10;;;23.30;48.10;;;;;;6124828;28;83357;-65
2021/11/26 08:44:38;;;;;;;28.02;17.00;;;23.30;47.80;;;;;;6131131;28;83121;-65
2021/11/26 08:47:39;;;;;;;35.17;17.83;;;23.30;48.10;;;;;;6128416;28;84598;-66
2021/11/26 08:50:39;;;;;;;35.30;18.52;;;23.30;47.70;;;;;;6131903;28;83477;-64
2021/11/26 08:53:45;;;;;;;33.03;18.33;;;23.30;47.30;;;;;;6133836;28;83936;-68
2021/11/26 08:56:47;;;;;;;33.28;19.60;;;23.30;47.30;;;;;;6131040;28;84139;-63
2021/11/26 08:59:47;;;;;;;35.53;21.20;;;23.20;47.00;;;;;;6133103;28;83752;-64
2021/11/26 09:02:48;;;;;;;35.10;21.40;;;23.20;46.00;;;;;;6126517;28;83110;-64
2021/11/26 09:05:48;;;;;;;37.22;21.38;;;23.20;46.30;;;;;;6131322;28;83489;-64
2021/11/26 09:08:49;;;;;;;36.65;21.33;;;23.20;45.60;;;;;;6127580;28;84031;-64
2021/11/26 09:11:49;;;;;;;34.38;19.55;;;23.20;46.00;;;;;;6132547;28;84834;-63
2021/11/26 09:14:50;;;;;;;33.83;19.88;;;23.20;46.70;;;;;;6133123;28;83933;-63
2021/11/26 09:17:50;;;;;;;32.85;19.77;;;23.20;46.50;;;;;;6131645;28;83605;-63
2021/11/26 09:20:53;;;;;;;33.40;19.17;;;23.20;46.20;;;;;;6131911;28;83095;-64
2021/11/26 09:23:53;;;;;;;29.08;17.90;;;23.20;46.20;;;;;;6128928;28;82908;-63
2021/11/26 09:26:54;;;;;;;30.33;18.35;;;23.20;47.10;;;;;;6128901;28;84086;-64
2021/11/26 09:29:54;;;;;;;35.38;19.40;;;23.20;46.50;;;;;;6126284;28;84261;-64
2021/11/26 09:32:55;;;;;;;30.88;17.75;;;23.30;46.30;;;;;;6133081;28;83177;-63
2021/11/26 09:35:55;;;;;;;26.85;17.02;;;23.30;46.30;;;;;;6127058;28;83956;-64
2021/11/26 09:38:56;;;;;;;34.38;19.08;;;23.30;46.30;;;;;;6127585;28;84458;-64
2021/11/26 09:41:56;;;;;;;33.88;18.95;;;23.30;46.00;;;;;;6128202;28;90038;-64
2021/11/26 09:45:00;;;;;;;31.23;19.58;;;23.30;45.70;;;;;;6132593;28;83553;-63
2021/11/26 09:48:00;;;;;;;33.35;19.58;;;23.30;45.50;;;;;;6129348;28;83060;-63
2021/11/26 09:51:01;;;;;;;34.60;19.63;;;23.30;45.40;;;;;;6128260;28;83292;-64
2021/11/26 09:54:01;;;;;;;38.92;20.73;;;23.30;45.30;;;;;;6126664;28;85081;-64
2021/11/26 09:57:02;;;;;;;35.95;19.75;;;23.30;45.80;;;;;;6127798;28;83731;-65
2021/11/26 10:00:02;;;;;;;42.63;20.35;;;23.30;45.20;;;;;;6124534;28;84502;-64
2021/11/26 10:03:05;;;;;;;32.20;18.77;;;23.40;45.00;;;;;;6124023;28;83213;-64
2021/11/26 10:06:06;;;;;;;36.05;19.17;;;23.40;44.90;;;;;;6127707;28;83272;-64
2021/11/26 10:09:06;;;;;;;36.15;20.98;;;23.40;45.00;;;;;;6128946;28;83452;-64
2021/11/26 10:12:08;;;;;;;36.25;20.05;;;23.40;45.00;;;;;;6129308;28;83400;-64
2021/11/26 10:15:08;;;;;;;36.45;19.98;;;23.40;44.80;;;;;;6126082;28;84118;-64
2021/11/26 10:18:09;;;;;;;42.53;21.23;;;23.40;44.60;;;;;;6127589;28;83637;-64
2021/11/26 10:21:10;;;;;;;60.42;29.50;;;23.40;44.50;;;;;;6129176;28;83872;-64
2021/11/26 10:24:10;;;;;;;91.80;40.13;;;23.40;44.50;;;;;;6126982;28;85386;-65
2021/11/26 10:27:11;;;;;;;110.40;48.15;;;23.40;44.10;;;;;;6126738;28;83359;-66
2021/11/26 10:30:12;;;;;;;110.10;50.35;;;23.40;44.50;;;;;;6130061;28;83384;-66
2021/11/26 10:33:12;;;;;;;107.93;51.58;;;23.40;44.10;;;;;;6124834;28;83716;-66
2021/11/26 10:36:13;;;;;;;106.97;47.65;;;23.40;44.20;;;;;;6130074;28;84772;-66
2021/11/26 10:39:15;;;;;;;113.65;49.75;;;23.40;44.20;;;;;;6127863;28;83084;-65
2021/11/26 10:42:15;;;;;;;138.20;55.42;;;23.40;44.40;;;;;;6126081;28;83250;-67
2021/11/26 10:45:20;;;;;;;132.82;57.10;;;23.40;44.70;;;;;;6126893;28;83206;-65
2021/11/26 10:58:01;;;;;;;106.65;52.65;;;23.40;46.00;;;;;;6124659;28;83782;-66
2021/11/26 11:01:01;;;;;;;126.22;54.33;;;23.50;46.10;;;;;;6125828;28;83090;-66
2021/11/26 11:04:02;;;;;;;118.10;52.72;;;23.50;46.40;;;;;;6125133;28;88247;-66
2021/11/26 11:07:02;;;;;;;111.35;50.60;;;23.50;46.40;;;;;;6126468;28;83435;-64
2021/11/26 11:10:03;;;;;;;105.97;50.60;;;23.60;46.40;;;;;;6125416;28;83820;-65
2021/11/26 11:13:04;;;;;;;97.05;45.25;;;23.50;46.20;;;;;;6131373;28;82828;-65
2021/11/26 11:16:05;;;;;;;89.55;42.83;;;23.50;46.10;;;;;;6148170;28;83529;-64
2021/11/26 11:19:05;;;;;;;80.07;38.95;;;23.50;46.20;;;;;;6128783;28;83333;-65
2021/11/26 11:22:06;;;;;;;98.28;42.78;;;23.50;46.20;;;;;;6130683;28;84108;-64
2021/11/26 11:25:07;;;;;;;75.93;37.67;;;23.50;46.50;;;;;;6128946;28;84477;-65
2021/11/26 11:28:08;;;;;;;71.75;34.70;;;23.50;46.40;;;;;;6123082;28;84311;-65
2021/11/26 11:31:08;;;;;;;68.30;33.60;;;23.50;46.40;;;;;;6118178;28;83078;-65
2021/11/26 11:34:09;;;;;;;71.25;34.88;;;23.50;46.10;;;;;;6130498;28;83325;-65
2021/11/26 11:37:10;;;;;;;63.20;31.33;;;23.50;46.10;;;;;;6139941;28;83369;-66
2021/11/26 11:40:11;;;;;;;59.63;27.77;;;23.50;46.10;;;;;;6132202;28;83354;-65
2021/11/26 11:43:11;;;;;;;56.95;28.55;;;23.40;46.20;;;;;;6122363;28;84102;-65
2021/11/26 11:46:13;;;;;;;52.80;25.67;;;23.40;46.10;;;;;;6125265;28;85390;-65
2021/11/26 11:49:13;;;;;;;60.55;26.35;;;23.40;46.00;;;;;;6121808;28;83824;-66
2021/11/26 11:52:15;;;;;;;48.53;23.95;;;23.40;46.30;;;;;;6131020;28;83081;-65
2021/11/26 11:55:15;;;;;;;40.45;22.02;;;23.30;46.30;;;;;;6131914;28;83074;-65
2021/11/26 11:58:16;;;;;;;43.60;22.98;;;23.40;46.60;;;;;;6128243;28;84278;-65
2021/11/26 12:01:17;;;;;;;45.45;22.63;;;23.30;46.40;;;;;;6131312;28;83217;-65
2021/11/26 12:04:18;;;;;;;40.83;21.33;;;23.30;46.20;;;;;;6131383;28;83001;-66
2021/11/26 12:07:19;;;;;;;38.15;20.55;;;23.30;47.00;;;;;;6128961;28;84058;-65
2021/11/26 12:10:19;;;;;;;34.20;20.02;;;23.30;46.50;;;;;;6131410;28;85237;-66
2021/11/26 12:13:20;;;;;;;35.15;19.95;;;23.30;46.60;;;;;;6127177;28;84013;-64
2021/11/26 12:16:21;;;;;;;30.08;17.73;;;23.20;46.40;;;;;;6131331;28;84099;-64
2021/11/26 12:19:22;;;;;;;32.92;19.00;;;23.20;46.70;;;;;;6130334;28;82901;-64
2021/11/26 12:22:25;;;;;;;32.33;17.70;;;23.20;46.50;;;;;;6130285;28;82824;-64
2021/11/26 12:25:37;;;;;;;33.65;18.83;;;23.20;46.20;;;;;;6117510;28;83714;-64
2021/11/26 12:28:37;;;;;;;33.55;18.52;;;23.20;46.30;;;;;;6129182;28;84366;-65
2021/11/26 12:31:38;;;;;;;28.38;17.70;;;23.20;46.20;;;;;;6131427;28;83179;-65
2021/11/26 12:34:39;;;;;;;30.08;18.77;;;23.10;46.20;;;;;;6127739;28;84317;-66
2021/11/26 12:37:39;;;;;;;31.90;18.38;;;23.10;45.90;;;;;;6130773;28;83186;-65
2021/11/26 12:40:40;;;;;;;31.77;18.67;;;23.10;46.10;;;;;;6130343;28;83436;-65
2021/11/26 12:43:40;;;;;;;30.52;17.80;;;23.20;45.90;;;;;;6126881;28;83186;-66
2021/11/26 12:46:41;;;;;;;32.08;18.75;;;23.10;45.80;;;;;;6130736;28;83215;-66
2021/11/26 12:52:42;;;;;;;29.52;17.77;;;23.10;45.80;;;;;;6130457;28;84341;-66
2021/11/26 12:55:43;;;;;;;31.23;18.95;;;23.10;45.70;;;;;;6125347;28;84412;-66
2021/11/26 12:58:45;;;;;;;29.23;17.80;;;23.10;46.40;;;;;;6128604;28;83380;-66
2021/11/26 13:01:45;;;;;;;27.27;16.30;;;23.10;45.90;;;;;;6130373;28;84066;-66
2021/11/26 13:04:46;;;;;;;28.60;17.23;;;23.00;45.90;;;;;;6130729;28;83084;-66
2021/11/26 13:07:47;;;;;;;28.63;17.02;;;23.00;45.90;;;;;;6132989;28;85737;-67
2021/11/26 13:10:47;;;;;;;24.58;15.60;;;23.00;46.00;;;;;;6130163;28;83238;-66
2021/11/26 13:13:48;;;;;;;27.98;16.45;;;23.00;46.10;;;;;;6129589;28;83073;-65
2021/11/26 13:16:48;;;;;;;25.50;15.75;;;23.00;45.70;;;;;;6132728;28;83059;-65
2021/11/26 13:19:49;;;;;;;28.25;16.63;;;23.00;47.10;;;;;;6128823;28;84187;-66
2021/11/26 13:22:49;;;;;;;26.58;16.38;;;23.00;46.10;;;;;;6124177;28;84520;-65
2021/11/26 13:25:50;;;;;;;28.08;17.23;;;23.00;46.40;;;;;;6130123;28;83435;-66
2021/11/26 13:28:54;;;;;;;28.85;16.60;;;23.00;46.40;;;;;;6125228;28;85744;-65
2021/11/26 13:31:54;;;;;;;25.58;15.65;;;23.00;46.30;;;;;;6127570;28;82989;-66
2021/11/26 13:34:56;;;;;;;24.95;15.63;;;23.00;46.20;;;;;;6129747;28;84446;-65
2021/11/26 13:37:58;;;;;;;26.67;15.85;;;23.00;46.30;;;;;;6125602;28;84338;-65
2021/11/26 13:40:59;;;;;;;27.02;16.02;;;23.00;46.30;;;;;;6130306;28;83457;-66
2021/11/26 13:44:00;;;;;;;23.40;15.55;;;23.00;46.60;;;;;;6133253;28;83230;-66
2021/11/26 13:47:00;;;;;;;21.52;15.25;;;23.00;46.50;;;;;;6132367;28;84490;-66
2021/11/26 13:50:03;;;;;;;39.92;23.90;;;23.10;46.50;;;;;;6100383;28;84495;-64
2021/11/26 13:53:04;;;;;;;35.95;23.25;;;22.80;43.60;;;;;;6124931;28;83760;-65
2021/11/26 13:56:05;;;;;;;35.05;19.80;;;22.60;44.30;;;;;;6128528;28;84157;-66
2021/11/26 13:59:06;;;;;;;25.42;16.77;;;22.70;45.60;;;;;;6122331;28;83102;-66
2021/11/26 14:02:06;;;;;;;23.00;15.15;;;22.80;46.60;;;;;;6144976;28;84455;-67
2021/11/26 14:05:07;;;;;;;21.48;13.95;;;22.80;47.40;;;;;;6126124;28;90186;-66
2021/11/26 14:08:08;;;;;;;20.42;12.23;;;22.80;47.60;;;;;;6130261;28;84134;-67
2021/11/26 14:11:09;;;;;;;18.45;12.18;;;22.90;48.20;;;;;;6142852;28;83120;-64
2021/11/26 14:14:09;;;;;;;18.42;12.18;;;22.90;48.60;;;;;;6129723;28;83460;-65
2021/11/26 14:17:10;;;;;;;17.42;11.70;;;22.90;48.70;;;;;;6131006;28;83148;-65
2021/11/26 14:20:10;;;;;;;17.52;12.20;;;22.90;48.80;;;;;;6130943;28;83339;-66
2021/11/26 14:23:11;;;;;;;20.17;13.05;;;23.00;48.80;;;;;;6132588;28;83789;-64
2021/11/26 14:26:11;;;;;;;19.42;12.18;;;23.10;48.40;;;;;;6129949;28;84527;-64
2021/11/26 14:29:12;;;;;;;16.77;11.38;;;23.10;48.20;;;;;;6133796;28;83936;-65
2021/11/26 14:32:13;;;;;;;18.92;11.93;;;23.20;48.30;;;;;;6130755;28;82969;-64
2021/11/26 14:35:13;;;;;;;18.08;11.15;;;23.10;48.30;;;;;;6131944;28;83161;-65
2021/11/26 14:38:14;;;;;;;17.52;11.52;;;23.10;48.10;;;;;;6124963;28;84415;-65
2021/11/26 14:41:14;;;;;;;18.50;11.38;;;23.10;48.10;;;;;;6132107;28;82981;-65
2021/11/26 14:44:15;;;;;;;19.15;11.13;;;23.20;48.20;;;;;;6131098;28;84254;-65
2021/11/26 14:47:15;;;;;;;17.27;11.20;;;23.20;48.70;;;;;;6133586;28;83017;-66
2021/11/26 14:50:16;;;;;;;18.88;11.35;;;23.20;48.00;;;;;;6128941;28;84108;-64
2021/11/26 14:53:17;;;;;;;20.95;12.05;;;23.20;48.40;;;;;;6129703;28;83448;-65
2021/11/26 14:56:18;;;;;;;71.78;35.30;;;23.20;49.20;;;;;;6125709;28;83409;-65
2021/11/26 14:59:18;;;;;;;158.73;76.57;;;23.30;48.30;;;;;;6129811;28;83448;-67
2021/11/26 15:02:19;;;;;;;213.02;99.90;;;23.30;48.20;;;;;;6130759;28;83158;-67
2021/11/26 15:05:19;;;;;;;208.73;103.60;;;23.40;48.30;;;;;;6131420;28;83191;-68
2021/11/26 15:08:20;;;;;;;166.73;81.70;;;23.40;48.20;;;;;;6127058;28;86713;-66
2021/11/26 15:11:20;;;;;;;130.77;65.90;;;23.40;48.00;;;;;;6125572;28;85342;-67
2021/11/26 15:14:22;;;;;;;107.75;52.70;;;23.40;47.90;;;;;;6128853;28;82920;-67
2021/11/26 15:17:23;;;;;;;102.88;51.17;;;23.40;47.50;;;;;;6123720;28;88569;-68
2021/11/26 15:20:23;;;;;;;96.00;43.67;;;23.50;47.40;;;;;;6131239;28;83091;-66
2021/11/26 15:23:24;;;;;;;75.53;38.00;;;23.50;47.00;;;;;;6128033;28;83184;-66
2021/11/26 15:26:24;;;;;;;77.15;38.15;;;23.50;47.30;;;;;;6129393;28;83926;-66